Time;durP1;ratioP1;P1;durP2;ratioP2;P2;SDS_P1;SDS_P2;PMS_P1;PMS_P2;Temp;Humidity;BMP_temperature;BMP_pressure;BME280_temperature;BME280_humidity;BME280_pressure;Samples;Min_cycle;Max_cycle;Signal;HPM_P1;HPM_P2
2022/07/22 00:00:32;;;;;;;4.68;4.18;;;27.80;91.20;;;;;;5112986;28;20043;-72
2022/07/22 00:03:00;;;;;;;4.28;3.83;;;27.80;91.00;;;;;;5095560;28;20044;-72
2022/07/22 00:05:27;;;;;;;8.50;4.43;;;27.80;90.70;;;;;;5112201;28;20047;-73
2022/07/22 00:07:55;;;;;;;7.57;3.90;;;27.80;90.50;;;;;;5112433;28;20085;-73
2022/07/22 00:10:23;;;;;;;6.95;4.00;;;27.70;90.30;;;;;;5113128;28;20530;-73
2022/07/22 00:12:50;;;;;;;5.00;4.05;;;27.80;90.30;;;;;;5078913;28;20447;-72
2022/07/22 00:15:18;;;;;;;5.15;4.35;;;27.70;90.20;;;;;;5111974;28;20542;-73
2022/07/22 00:17:46;;;;;;;5.57;4.40;;;27.70;90.10;;;;;;5111839;28;20139;-73
2022/07/22 00:20:13;;;;;;;6.40;3.95;;;27.70;90.00;;;;;;5095839;28;20058;-73
2022/07/22 00:22:41;;;;;;;7.95;4.88;;;27.60;89.80;;;;;;5109907;28;20040;-72
2022/07/22 00:25:09;;;;;;;5.88;3.83;;;27.60;89.60;;;;;;5094955;28;20645;-72
2022/07/22 00:27:37;;;;;;;4.55;3.58;;;27.60;89.40;;;;;;5094863;28;20063;-73
2022/07/22 00:30:05;;;;;;;7.70;4.35;;;27.60;89.10;;;;;;5095091;28;20109;-73
2022/07/22 00:32:33;;;;;;;6.50;3.97;;;27.50;88.70;;;;;;5112788;28;20043;-73
2022/07/22 00:35:00;;;;;;;5.30;3.90;;;27.50;88.30;;;;;;5095865;28;20048;-72
2022/07/22 00:37:28;;;;;;;9.07;5.00;;;27.50;88.00;;;;;;5095373;28;20136;-73
2022/07/22 00:39:55;;;;;;;6.13;4.28;;;27.50;87.60;;;;;;5113672;28;20046;-73
2022/07/22 00:42:23;;;;;;;4.38;3.63;;;27.50;87.20;;;;;;5095328;28;20413;-72
2022/07/22 00:44:51;;;;;;;4.55;3.72;;;27.50;86.80;;;;;;5095420;28;20060;-73
2022/07/22 00:47:22;;;;;;;4.93;4.03;;;27.50;86.40;;;;;;5111884;28;20756;-72
2022/07/22 00:49:50;;;;;;;5.00;4.00;;;27.50;85.80;;;;;;5095675;28;20507;-72
2022/07/22 00:52:22;;;;;;;5.50;4.00;;;27.50;85.30;;;;;;5113476;28;20047;-72
2022/07/22 00:54:51;;;;;;;6.07;4.03;;;27.50;84.80;;;;;;5078332;28;20082;-73
2022/07/22 00:57:19;;;;;;;4.82;3.58;;;27.50;84.40;;;;;;5111990;28;20399;-72
2022/07/22 00:59:47;;;;;;;4.65;3.72;;;27.50;83.90;;;;;;5094581;28;20039;-72
2022/07/22 01:02:15;;;;;;;4.28;3.60;;;27.50;83.60;;;;;;5112016;28;20052;-72
2022/07/22 01:04:42;;;;;;;4.97;3.45;;;27.40;83.40;;;;;;5111833;28;20054;-73
2022/07/22 01:07:13;;;;;;;4.10;3.30;;;27.50;83.30;;;;;;5093871;28;20094;-73
2022/07/22 01:09:45;;;;;;;4.25;3.17;;;27.40;82.70;;;;;;5111518;28;20261;-73
2022/07/22 01:12:13;;;;;;;3.97;3.15;;;27.40;81.70;;;;;;5078120;28;20078;-72
2022/07/22 01:14:40;;;;;;;5.95;3.80;;;27.40;81.10;;;;;;5077636;28;20062;-72
2022/07/22 01:17:08;;;;;;;4.85;3.13;;;27.40;80.70;;;;;;5095024;28;20058;-72
2022/07/22 01:19:36;;;;;;;4.85;4.10;;;27.40;80.10;;;;;;5111618;28;20472;-73
2022/07/22 01:22:06;;;;;;;4.07;3.17;;;27.40;79.40;;;;;;5111831;28;20443;-72
2022/07/22 01:24:33;;;;;;;7.05;3.45;;;27.50;78.90;;;;;;5078278;28;20047;-72
2022/07/22 01:27:01;;;;;;;4.13;2.90;;;27.40;78.40;;;;;;5111119;28;20094;-73
2022/07/22 01:29:29;;;;;;;4.25;3.25;;;27.50;77.70;;;;;;5094337;28;20042;-72
2022/07/22 01:31:57;;;;;;;6.53;3.25;;;27.50;77.10;;;;;;5111376;28;20083;-73
2022/07/22 01:34:25;;;;;;;5.35;3.38;;;27.50;76.70;;;;;;5094300;28;20100;-72
2022/07/22 01:36:52;;;;;;;5.18;3.58;;;27.50;76.10;;;;;;5094790;28;20071;-72
2022/07/22 01:39:20;;;;;;;4.90;3.20;;;27.50;75.80;;;;;;5111580;28;20048;-72
2022/07/22 01:41:48;;;;;;;4.78;2.95;;;27.50;75.30;;;;;;5110805;28;20448;-72
2022/07/22 01:44:16;;;;;;;3.55;2.90;;;27.50;75.00;;;;;;5077245;28;20143;-72
2022/07/22 01:46:44;;;;;;;6.05;3.38;;;27.50;74.40;;;;;;5077395;28;20508;-72
2022/07/22 01:49:12;;;;;;;4.43;2.70;;;27.50;73.90;;;;;;5110969;28;20043;-72
2022/07/22 01:51:39;;;;;;;3.08;2.58;;;27.50;73.40;;;;;;5093944;28;20114;-73
2022/07/22 01:54:08;;;;;;;5.10;3.30;;;27.40;73.30;;;;;;5077171;28;20418;-73
2022/07/22 01:56:37;;;;;;;5.10;3.42;;;27.50;73.10;;;;;;5110699;28;20047;-74
2022/07/22 01:59:07;;;;;;;5.10;3.20;;;27.50;72.80;;;;;;5077178;28;20079;-73
2022/07/22 02:01:35;;;;;;;3.00;2.65;;;27.50;72.40;;;;;;5093734;28;20075;-72
2022/07/22 02:04:02;;;;;;;4.28;3.20;;;27.50;72.00;;;;;;5093572;28;20048;-73
2022/07/22 02:06:31;;;;;;;3.95;2.80;;;27.50;71.70;;;;;;5093156;28;20044;-72
2022/07/22 02:08:59;;;;;;;3.13;2.72;;;27.50;71.20;;;;;;5093745;28;20094;-73
2022/07/22 02:11:49;;;;;;;7.22;3.40;;;27.50;71.20;;;;;;5080558;28;20077;-72
2022/07/22 02:14:17;;;;;;;3.92;2.72;;;27.60;71.20;;;;;;5110187;28;20047;-72
2022/07/22 02:16:45;;;;;;;4.07;3.03;;;27.50;71.20;;;;;;5093919;28;20043;-73
2022/07/22 02:19:13;;;;;;;5.07;3.42;;;27.50;71.30;;;;;;5110240;28;20401;-72
2022/07/22 02:21:41;;;;;;;4.30;3.10;;;27.50;71.70;;;;;;5110358;28;20092;-73
2022/07/22 02:24:08;;;;;;;4.85;3.35;;;27.60;71.90;;;;;;5093757;28;20081;-72
2022/07/22 02:26:36;;;;;;;5.55;3.45;;;27.60;72.30;;;;;;5107964;28;20043;-73
2022/07/22 02:29:04;;;;;;;9.65;3.85;;;27.60;72.50;;;;;;5093161;28;20520;-72
2022/07/22 02:31:31;;;;;;;5.45;3.03;;;27.50;72.50;;;;;;5109913;28;20047;-72
2022/07/22 02:34:07;;;;;;;6.60;3.08;;;27.50;72.70;;;;;;5110309;28;20052;-72
2022/07/22 02:36:34;;;;;;;4.05;3.45;;;27.50;72.80;;;;;;5111251;28;20047;-72
2022/07/22 02:39:03;;;;;;;5.10;3.20;;;27.50;73.00;;;;;;5093155;28;20092;-73
2022/07/22 02:41:32;;;;;;;5.97;3.60;;;27.50;73.10;;;;;;5076290;28;20105;-73
2022/07/22 02:44:00;;;;;;;10.27;3.90;;;27.40;72.90;;;;;;5110218;28;20634;-72
2022/07/22 02:46:28;;;;;;;6.13;2.97;;;27.40;72.80;;;;;;5093100;28;20043;-72
2022/07/22 02:49:05;;;;;;;6.45;3.50;;;27.30;72.40;;;;;;5093653;28;20071;-73
2022/07/22 02:51:32;;;;;;;5.72;3.40;;;27.30;72.00;;;;;;5109850;28;20044;-73
2022/07/22 02:54:00;;;;;;;5.05;3.50;;;27.30;71.50;;;;;;5089918;28;20068;-72
2022/07/22 02:56:28;;;;;;;7.90;4.13;;;27.40;71.00;;;;;;5089692;28;20051;-72
2022/07/22 02:58:55;;;;;;;4.63;3.10;;;27.40;70.60;;;;;;5055948;28;20062;-72
2022/07/22 03:01:23;;;;;;;5.63;3.28;;;27.40;70.20;;;;;;5081925;28;20059;-73
2022/07/22 03:03:57;;;;;;;5.25;3.60;;;27.40;69.90;;;;;;5075518;28;20527;-73
2022/07/22 03:06:25;;;;;;;4.53;3.60;;;27.40;69.50;;;;;;5089459;28;20127;-72
2022/07/22 03:09:15;;;;;;;5.95;3.83;;;27.50;69.30;;;;;;5089390;28;20048;-72
2022/07/22 03:11:45;;;;;;;4.32;3.58;;;27.50;69.10;;;;;;5089119;28;20450;-72
2022/07/22 03:14:13;;;;;;;4.55;3.50;;;27.50;69.10;;;;;;5072106;28;20040;-72
2022/07/22 03:16:40;;;;;;;6.45;3.65;;;27.50;68.80;;;;;;5072672;28;20040;-72
2022/07/22 03:19:08;;;;;;;5.50;3.78;;;27.40;68.70;;;;;;5072827;28;20047;-73
2022/07/22 03:21:36;;;;;;;6.38;3.40;;;27.50;68.70;;;;;;5055727;28;20044;-72
2022/07/22 03:24:04;;;;;;;8.60;4.93;;;27.40;68.50;;;;;;5089170;28;20117;-73
2022/07/22 03:26:32;;;;;;;5.03;3.40;;;27.50;68.50;;;;;;5055801;28;20502;-72
2022/07/22 03:29:00;;;;;;;5.03;3.63;;;27.40;68.50;;;;;;5072595;28;20075;-73
2022/07/22 03:31:29;;;;;;;7.38;3.67;;;27.40;68.50;;;;;;5076737;28;20055;-72
2022/07/22 03:33:57;;;;;;;8.05;4.68;;;27.40;68.50;;;;;;5076666;28;20032;-73
2022/07/22 03:36:29;;;;;;;6.75;3.90;;;27.40;68.30;;;;;;5093255;28;20033;-72
2022/07/22 03:38:57;;;;;;;4.90;3.90;;;27.40;68.10;;;;;;5059682;28;20054;-72
2022/07/22 03:41:25;;;;;;;6.15;3.53;;;27.40;67.90;;;;;;5059635;28;20143;-75
2022/07/22 03:43:53;;;;;;;5.88;3.85;;;27.40;67.80;;;;;;5093253;28;20052;-72
2022/07/22 03:46:21;;;;;;;4.78;3.22;;;27.30;67.40;;;;;;5077325;28;20044;-72
2022/07/22 03:48:49;;;;;;;5.95;4.10;;;27.30;67.20;;;;;;5093624;28;20044;-72
2022/07/22 03:51:18;;;;;;;6.15;3.42;;;27.30;67.20;;;;;;5076167;28;20048;-73
2022/07/22 03:53:46;;;;;;;5.15;3.58;;;27.40;67.20;;;;;;5092428;28;20478;-72
2022/07/22 03:56:14;;;;;;;4.00;3.15;;;27.40;67.00;;;;;;5092764;28;20047;-72
2022/07/22 03:58:41;;;;;;;7.45;3.42;;;27.40;66.60;;;;;;5075853;28;20163;-72
2022/07/22 04:01:10;;;;;;;5.85;3.55;;;27.50;66.80;;;;;;5075909;28;20058;-73
2022/07/22 04:03:40;;;;;;;5.13;3.05;;;27.50;66.80;;;;;;5075976;28;20044;-72
2022/07/22 04:06:24;;;;;;;4.57;3.00;;;27.50;66.80;;;;;;5075769;28;20047;-72
2022/07/22 04:08:59;;;;;;;8.25;3.58;;;27.60;67.20;;;;;;5075818;28;20051;-72
2022/07/22 04:11:28;;;;;;;5.20;3.85;;;27.60;67.20;;;;;;5092036;28;20040;-72
2022/07/22 04:13:56;;;;;;;8.77;4.35;;;27.70;67.50;;;;;;5092748;28;20048;-72
2022/07/22 04:16:23;;;;;;;6.82;3.75;;;27.70;67.60;;;;;;5075439;28;20052;-72
2022/07/22 04:18:58;;;;;;;5.88;3.30;;;27.80;67.90;;;;;;5074992;28;20405;-72
2022/07/22 04:21:40;;;;;;;7.15;3.33;;;27.80;68.20;;;;;;5075245;28;20044;-72
2022/07/22 04:24:10;;;;;;;3.78;2.90;;;27.90;68.70;;;;;;5092315;28;20070;-73
2022/07/22 04:26:40;;;;;;;5.78;2.95;;;28.00;69.20;;;;;;5092110;28;20058;-72
2022/07/22 04:29:08;;;;;;;6.63;3.35;;;28.00;69.60;;;;;;5092239;28;20044;-72
2022/07/22 04:31:35;;;;;;;7.68;3.55;;;28.10;69.90;;;;;;5075009;28;20062;-72
2022/07/22 04:34:12;;;;;;;4.65;2.83;;;28.20;69.90;;;;;;5092629;28;20500;-72
2022/07/22 04:36:40;;;;;;;4.95;3.28;;;28.30;70.20;;;;;;5092227;28;20576;-72
2022/07/22 04:39:08;;;;;;;5.07;3.45;;;28.40;70.40;;;;;;5075612;28;20502;-72
2022/07/22 04:41:41;;;;;;;7.65;3.33;;;28.50;70.60;;;;;;5075059;28;20167;-73
2022/07/22 04:44:13;;;;;;;5.78;3.42;;;28.60;71.10;;;;;;5077659;28;20128;-73
2022/07/22 04:46:41;;;;;;;6.78;3.22;;;28.70;70.80;;;;;;5078662;28;20051;-73
2022/07/22 04:49:09;;;;;;;7.45;3.22;;;28.90;71.10;;;;;;5113741;28;20135;-72
2022/07/22 04:51:36;;;;;;;5.15;3.08;;;28.90;71.30;;;;;;5111901;28;20083;-73
2022/07/22 04:54:08;;;;;;;5.38;2.80;;;29.00;71.70;;;;;;5095786;28;20039;-72
2022/07/22 04:56:39;;;;;;;6.82;2.90;;;29.10;72.50;;;;;;5095930;28;20120;-72
2022/07/22 04:59:07;;;;;;;4.65;3.05;;;29.30;73.10;;;;;;5095573;28;20047;-72
2022/07/22 05:01:36;;;;;;;7.10;3.20;;;29.40;73.50;;;;;;5111766;28;20050;-73
2022/07/22 05:04:04;;;;;;;5.72;3.20;;;29.50;73.70;;;;;;5094898;28;20058;-72
2022/07/22 05:06:32;;;;;;;6.32;4.50;;;29.60;73.60;;;;;;5078312;28;20051;-72
2022/07/22 05:09:01;;;;;;;6.32;3.47;;;29.70;73.80;;;;;;5094971;28;20048;-72
2022/07/22 05:11:30;;;;;;;4.85;3.15;;;29.80;73.80;;;;;;5111068;28;20108;-72
2022/07/22 05:13:58;;;;;;;4.32;3.17;;;29.90;73.90;;;;;;5095053;28;20089;-73
2022/07/22 05:16:26;;;;;;;6.75;3.53;;;30.10;74.30;;;;;;5111332;28;20522;-73
2022/07/22 05:18:54;;;;;;;9.43;3.58;;;30.10;74.50;;;;;;5111191;28;20047;-73
2022/07/22 05:21:21;;;;;;;6.75;4.10;;;30.30;75.00;;;;;;5112338;28;20043;-72
2022/07/22 05:23:49;;;;;;;6.28;3.08;;;30.40;75.20;;;;;;5111266;28;20044;-73
2022/07/22 05:26:17;;;;;;;5.43;3.45;;;30.50;75.50;;;;;;5111248;28;20685;-73
2022/07/22 05:28:46;;;;;;;5.50;3.35;;;30.60;75.60;;;;;;5078047;28;20044;-72
2022/07/22 05:31:14;;;;;;;5.80;3.47;;;30.70;75.60;;;;;;5094410;28;20093;-72
2022/07/22 05:33:42;;;;;;;8.55;3.17;;;30.80;75.70;;;;;;5094606;28;20031;-72
2022/07/22 05:36:31;;;;;;;4.22;3.08;;;30.90;75.70;;;;;;5089495;28;20517;-72
2022/07/22 05:38:59;;;;;;;5.43;3.33;;;31.00;75.10;;;;;;5091046;28;20050;-72
2022/07/22 05:41:27;;;;;;;4.55;3.25;;;31.10;74.40;;;;;;5090577;28;20135;-73
2022/07/22 05:43:55;;;;;;;4.60;3.20;;;31.20;73.90;;;;;;5074334;28;20051;-72
2022/07/22 05:46:23;;;;;;;5.40;3.10;;;31.30;73.60;;;;;;5090702;28;20044;-73
2022/07/22 05:48:50;;;;;;;4.75;2.67;;;31.40;73.40;;;;;;5090274;28;20048;-72
2022/07/22 05:51:18;;;;;;;3.90;2.97;;;31.60;73.10;;;;;;5090484;28;20044;-72
2022/07/22 05:53:47;;;;;;;6.57;3.35;;;31.60;73.10;;;;;;5073236;28;20048;-72
2022/07/22 05:56:15;;;;;;;6.22;3.15;;;31.80;72.20;;;;;;5073414;28;20040;-73
2022/07/22 05:58:43;;;;;;;4.85;2.83;;;31.90;71.90;;;;;;5073538;28;20444;-73
2022/07/22 06:01:13;;;;;;;4.22;2.85;;;32.10;71.40;;;;;;5074121;28;20387;-72
2022/07/22 06:03:41;;;;;;;5.07;3.22;;;32.10;70.40;;;;;;5056397;28;20490;-73
2022/07/22 06:06:12;;;;;;;9.20;2.83;;;32.20;69.60;;;;;;5073467;28;20059;-73
2022/07/22 06:08:41;;;;;;;4.47;2.70;;;32.40;68.80;;;;;;5090392;28;20098;-72
2022/07/22 06:11:11;;;;;;;6.78;3.10;;;32.50;67.90;;;;;;5072536;28;20067;-73
2022/07/22 06:13:39;;;;;;;11.43;2.65;;;32.60;67.20;;;;;;5089993;28;20054;-72
2022/07/22 06:16:07;;;;;;;5.82;3.80;;;32.70;67.10;;;;;;5073284;28;20056;-73
2022/07/22 06:18:38;;;;;;;8.55;3.10;;;32.90;67.10;;;;;;5073507;28;20052;-73
2022/07/22 06:21:07;;;;;;;4.70;3.15;;;33.00;67.00;;;;;;5089969;28;20044;-73
2022/07/22 06:23:36;;;;;;;5.00;3.35;;;33.10;66.40;;;;;;5073137;28;20093;-72
2022/07/22 06:26:04;;;;;;;7.07;3.03;;;33.20;65.80;;;;;;5056526;28;20066;-73
2022/07/22 06:28:34;;;;;;;3.65;3.13;;;33.30;64.70;;;;;;5089317;28;20456;-72
2022/07/22 06:31:03;;;;;;;4.10;2.83;;;33.30;63.50;;;;;;5073180;28;20043;-73
2022/07/22 06:33:33;;;;;;;3.80;2.78;;;33.30;63.20;;;;;;5089762;28;20052;-72
2022/07/22 06:36:01;;;;;;;4.53;2.83;;;33.50;63.10;;;;;;5089441;28;20048;-74
2022/07/22 06:38:30;;;;;;;7.93;2.72;;;33.60;62.60;;;;;;5089863;28;20047;-73
2022/07/22 06:41:13;;;;;;;6.15;3.63;;;33.50;62.10;;;;;;5089440;28;20115;-73
2022/07/22 06:43:53;;;;;;;5.25;3.50;;;33.60;62.10;;;;;;5058094;28;20567;-73
2022/07/22 06:46:45;;;;;;;6.97;2.88;;;33.70;62.10;;;;;;5076442;28;20043;-73
2022/07/22 06:49:12;;;;;;;7.07;2.95;;;33.80;62.50;;;;;;5072206;28;20138;-73
2022/07/22 06:51:41;;;;;;;5.35;2.78;;;33.90;62.80;;;;;;5088663;28;20043;-72
2022/07/22 06:54:09;;;;;;;3.88;2.83;;;33.90;62.10;;;;;;5089858;28;20044;-72
2022/07/22 06:56:37;;;;;;;4.22;2.40;;;34.00;62.50;;;;;;5072224;28;20150;-72
2022/07/22 06:59:06;;;;;;;6.70;2.10;;;34.00;62.30;;;;;;5056058;28;20052;-73
2022/07/22 07:01:34;;;;;;;4.97;2.55;;;33.90;61.30;;;;;;5090337;28;20055;-73
2022/07/22 07:04:03;;;;;;;3.47;2.50;;;34.10;61.80;;;;;;5071725;28;20063;-73
2022/07/22 07:06:32;;;;;;;4.28;2.88;;;34.20;63.50;;;;;;5055724;28;20525;-72
2022/07/22 07:09:07;;;;;;;;;;;34.30;62.10;;;;;;5088894;28;20036;-73
2022/07/22 07:11:36;;;;;;;2.67;2.03;;;34.50;61.90;;;;;;5072507;28;19963;-73
2022/07/22 07:14:11;;;;;;;9.27;3.15;;;34.60;61.80;;;;;;5057210;28;20056;-73
2022/07/22 07:16:39;;;;;;;5.60;2.50;;;34.70;61.60;;;;;;5071989;28;20052;-73
2022/07/22 07:19:09;;;;;;;3.67;2.53;;;34.70;59.90;;;;;;5055841;28;20048;-74
2022/07/22 07:21:36;;;;;;;3.80;2.40;;;34.80;60.30;;;;;;5054822;28;20059;-73
2022/07/22 07:24:05;;;;;;;3.15;1.88;;;34.90;60.80;;;;;;5090091;28;20430;-73
2022/07/22 07:26:32;;;;;;;3.70;2.10;;;34.70;59.70;;;;;;5071660;28;20490;-73
2022/07/22 07:29:00;;;;;;;3.80;2.55;;;34.60;59.60;;;;;;5072383;28;20044;-73
2022/07/22 07:31:33;;;;;;;3.20;2.10;;;34.60;59.80;;;;;;5088558;28;20063;-73
2022/07/22 07:34:03;;;;;;;4.68;2.70;;;34.50;59.60;;;;;;5089230;28;20054;-73
2022/07/22 07:36:31;;;;;;;6.40;2.17;;;34.60;60.10;;;;;;5071860;28;20043;-73
2022/07/22 07:38:59;;;;;;;3.28;2.13;;;34.60;60.40;;;;;;5088505;28;20772;-73
2022/07/22 07:41:27;;;;;;;3.63;2.10;;;34.80;59.80;;;;;;5088616;28;20059;-72
2022/07/22 07:43:56;;;;;;;3.13;2.05;;;34.80;60.40;;;;;;5089305;28;20046;-72
2022/07/22 07:46:23;;;;;;;5.82;2.75;;;34.90;60.90;;;;;;5072007;28;20048;-72
2022/07/22 07:48:51;;;;;;;4.80;2.50;;;35.00;61.50;;;;;;5071597;28;20143;-72
2022/07/22 07:51:19;;;;;;;4.00;2.03;;;35.00;61.20;;;;;;5072141;28;20073;-72
2022/07/22 07:53:46;;;;;;;4.55;2.05;;;35.10;62.00;;;;;;5071576;28;20047;-73
2022/07/22 07:56:14;;;;;;;2.50;1.92;;;35.10;62.00;;;;;;5071978;28;20051;-72
2022/07/22 07:58:43;;;;;;;3.35;1.70;;;35.20;62.40;;;;;;5071262;28;20051;-72
2022/07/22 08:01:17;;;;;;;4.40;2.42;;;35.10;62.50;;;;;;5073434;28;20051;-72
2022/07/22 08:03:45;;;;;;;4.43;3.00;;;35.10;62.60;;;;;;5070549;28;20514;-73
2022/07/22 08:06:13;;;;;;;3.70;2.20;;;35.10;63.50;;;;;;5088280;28;20799;-73
2022/07/22 08:08:41;;;;;;;3.67;2.38;;;35.00;63.60;;;;;;5088186;28;20058;-73
2022/07/22 08:11:16;;;;;;;3.53;2.20;;;35.00;63.10;;;;;;5071492;28;20398;-74
2022/07/22 08:13:52;;;;;;;3.45;1.88;;;35.00;63.40;;;;;;5096080;28;20096;-72
2022/07/22 08:16:37;;;;;;;4.32;2.42;;;34.90;63.40;;;;;;5079801;28;20067;-73
2022/07/22 08:19:06;;;;;;;4.43;2.10;;;35.00;63.00;;;;;;5078385;28;20150;-73
2022/07/22 08:21:34;;;;;;;4.38;1.80;;;35.10;63.40;;;;;;5078247;28;20054;-72
2022/07/22 08:24:17;;;;;;;2.40;1.70;;;35.10;62.50;;;;;;5098194;28;20036;-73
2022/07/22 08:26:45;;;;;;;3.13;2.22;;;35.10;63.20;;;;;;5112249;28;20458;-73
2022/07/22 08:29:12;;;;;;;8.75;2.60;;;35.20;62.90;;;;;;5095495;28;20073;-72
2022/07/22 08:31:40;;;;;;;4.00;1.95;;;35.20;62.10;;;;;;5077745;28;20045;-73
2022/07/22 08:34:11;;;;;;;2.22;1.52;;;35.20;60.90;;;;;;5095870;28;20051;-73
2022/07/22 08:36:38;;;;;;;4.18;2.00;;;35.30;62.00;;;;;;5095580;28;20054;-73
2022/07/22 08:39:06;;;;;;;9.68;2.55;;;35.30;62.50;;;;;;5111958;28;20123;-73
2022/07/22 08:41:37;;;;;;;3.25;2.25;;;35.20;62.40;;;;;;5111923;28;20545;-73
2022/07/22 08:44:07;;;;;;;2.90;1.75;;;35.30;62.90;;;;;;5095075;28;20040;-73
2022/07/22 08:46:35;;;;;;;3.13;2.20;;;35.20;63.30;;;;;;5095331;28;20044;-73
2022/07/22 08:49:23;;;;;;;4.53;3.10;;;35.10;63.50;;;;;;5111394;28;20051;-72
2022/07/22 08:52:19;;;;;;;8.40;2.03;;;35.00;63.90;;;;;;5113429;28;20088;-72
2022/07/22 08:54:49;;;;;;;9.52;2.28;;;35.00;64.20;;;;;;5078975;28;20043;-72
2022/07/22 08:57:18;;;;;;;3.35;1.90;;;34.80;64.50;;;;;;5078935;28;20073;-72
2022/07/22 08:59:57;;;;;;;5.95;2.35;;;34.80;64.40;;;;;;5112124;28;20081;-72
2022/07/22 09:02:26;;;;;;;4.78;2.20;;;34.80;64.80;;;;;;5078411;28;20487;-73
2022/07/22 09:04:59;;;;;;;4.88;2.60;;;34.90;65.10;;;;;;5095201;28;20106;-73
2022/07/22 09:07:34;;;;;;;6.38;2.83;;;35.00;65.20;;;;;;5091058;28;20048;-73
2022/07/22 09:10:33;;;;;;;3.47;2.77;;;35.00;64.40;;;;;;5074580;28;20040;-73
2022/07/22 09:13:11;;;;;;;3.42;2.20;;;35.10;64.40;;;;;;5108556;28;20293;-72
2022/07/22 09:15:54;;;;;;;6.85;2.88;;;35.10;63.30;;;;;;5075292;28;20131;-72
2022/07/22 09:19:00;;;;;;;4.10;2.10;;;34.90;63.40;;;;;;5090602;28;20056;-72
2022/07/22 09:21:54;;;;;;;2.80;1.92;;;35.00;63.90;;;;;;5060059;28;20059;-72
2022/07/22 09:24:42;;;;;;;2.88;1.88;;;35.20;64.40;;;;;;5076961;28;20040;-73
2022/07/22 09:27:24;;;;;;;2.75;2.05;;;35.20;64.60;;;;;;5089418;28;20044;-73
2022/07/22 09:30:17;;;;;;;2.97;1.98;;;35.30;64.30;;;;;;5084018;28;20109;-72
2022/07/22 09:32:54;;;;;;;4.40;2.70;;;35.30;63.20;;;;;;5075263;28;20048;-72
2022/07/22 09:35:35;;;;;;;4.53;2.30;;;35.30;62.80;;;;;;5076253;28;20124;-72
2022/07/22 09:38:06;;;;;;;3.22;2.00;;;35.20;63.30;;;;;;5073902;28;20054;-73
2022/07/22 09:40:39;;;;;;;3.03;2.03;;;35.30;63.30;;;;;;5091603;28;20446;-72
2022/07/22 09:43:12;;;;;;;2.92;2.03;;;35.20;63.00;;;;;;5074158;28;20044;-73
2022/07/22 09:45:59;;;;;;;3.97;2.30;;;35.20;62.90;;;;;;5090701;28;20119;-73
2022/07/22 09:48:49;;;;;;;3.75;1.90;;;35.20;61.90;;;;;;5082554;28;20048;-72
2022/07/22 09:51:34;;;;;;;9.98;2.60;;;35.20;62.00;;;;;;5076286;28;20048;-72
2022/07/22 09:54:11;;;;;;;4.15;2.17;;;35.40;61.90;;;;;;5073592;28;20052;-72
2022/07/22 09:56:39;;;;;;;4.88;2.10;;;35.40;61.70;;;;;;5074153;28;20040;-73
2022/07/22 09:59:08;;;;;;;3.88;2.00;;;35.40;60.80;;;;;;5073932;28;20113;-72
2022/07/22 10:01:43;;;;;;;3.95;1.83;;;35.40;61.30;;;;;;5061142;28;20072;-72
2022/07/22 10:04:12;;;;;;;3.08;2.25;;;35.50;61.70;;;;;;5090396;28;20044;-72
2022/07/22 10:06:42;;;;;;;2.58;1.73;;;35.50;61.10;;;;;;5074019;28;20064;-73
2022/07/22 10:09:17;;;;;;;6.63;2.58;;;35.60;61.60;;;;;;5091202;28;20448;-73
2022/07/22 10:11:48;;;;;;;3.05;2.03;;;35.60;60.80;;;;;;5073178;28;20052;-73
2022/07/22 10:14:19;;;;;;;3.53;1.90;;;35.60;60.30;;;;;;5073076;28;20101;-75
2022/07/22 10:16:51;;;;;;;3.07;1.97;;;35.70;59.90;;;;;;5090173;28;20044;-73
2022/07/22 10:19:20;;;;;;;5.60;2.00;;;35.60;59.40;;;;;;5073148;28;20043;-73
2022/07/22 10:21:48;;;;;;;3.00;1.85;;;35.50;59.50;;;;;;5072801;28;20055;-73
2022/07/22 10:24:23;;;;;;;2.97;2.00;;;35.40;58.90;;;;;;5089581;28;20117;-73
2022/07/22 10:27:01;;;;;;;5.03;1.80;;;35.50;59.60;;;;;;5091469;28;20405;-73
2022/07/22 10:29:43;;;;;;;14.02;2.30;;;35.50;59.00;;;;;;5072856;28;20044;-73
2022/07/22 10:32:17;;;;;;;5.47;2.25;;;35.40;59.30;;;;;;5073036;28;20048;-73
2022/07/22 10:35:19;;;;;;;3.50;1.98;;;35.60;59.80;;;;;;5073126;28;20040;-73
2022/07/22 10:37:49;;;;;;;2.78;1.90;;;35.60;59.70;;;;;;5072506;28;20677;-73
2022/07/22 10:40:21;;;;;;;2.40;1.50;;;35.60;59.90;;;;;;5089061;28;20119;-73
2022/07/22 10:43:02;;;;;;;3.60;1.70;;;35.60;59.50;;;;;;5089495;28;20059;-73
2022/07/22 10:45:36;;;;;;;6.45;2.60;;;35.60;58.60;;;;;;5089195;28;20051;-73
2022/07/22 10:48:09;;;;;;;5.25;2.03;;;35.60;58.10;;;;;;5073132;28;20063;-73
2022/07/22 10:50:37;;;;;;;2.33;1.75;;;35.70;58.20;;;;;;5089650;28;20143;-74
2022/07/22 10:53:07;;;;;;;3.58;2.05;;;35.60;58.60;;;;;;5056347;28;20048;-73
2022/07/22 10:55:36;;;;;;;4.13;2.05;;;35.50;58.20;;;;;;5072132;28;20052;-74
2022/07/22 10:58:41;;;;;;;3.58;1.70;;;35.40;58.00;;;;;;5089916;28;20482;-74
2022/07/22 11:01:14;;;;;;;4.20;2.33;;;35.50;58.10;;;;;;5010961;28;20053;-73
2022/07/22 11:03:45;;;;;;;4.72;3.17;;;35.50;58.20;;;;;;5064378;28;20109;-74
2022/07/22 11:06:26;;;;;;;5.00;2.53;;;35.50;59.00;;;;;;5089613;28;20047;-73
2022/07/22 11:08:59;;;;;;;3.08;1.95;;;35.30;57.80;;;;;;5089376;28;20054;-74
2022/07/22 11:11:49;;;;;;;5.65;1.98;;;35.30;57.90;;;;;;5090307;28;20051;-73
2022/07/22 11:14:30;;;;;;;3.85;2.33;;;35.30;58.40;;;;;;5081864;28;20052;-72
2022/07/22 11:17:05;;;;;;;3.00;1.92;;;35.40;58.90;;;;;;5089385;28;20040;-74
2022/07/22 11:19:33;;;;;;;6.45;2.45;;;35.20;59.00;;;;;;5090043;28;20581;-73
2022/07/22 11:22:04;;;;;;;3.50;2.47;;;35.20;58.70;;;;;;5089186;28;20059;-73
2022/07/22 11:24:32;;;;;;;3.50;1.98;;;35.30;58.90;;;;;;5089143;28;20044;-73
2022/07/22 11:27:00;;;;;;;2.80;1.90;;;35.30;58.80;;;;;;5089572;28;20101;-73
2022/07/22 11:29:35;;;;;;;4.95;2.20;;;35.40;58.80;;;;;;5072231;28;20048;-73
2022/07/22 11:32:05;;;;;;;4.15;2.00;;;35.40;59.00;;;;;;5089386;28;20048;-74
2022/07/22 11:34:36;;;;;;;4.30;2.30;;;35.30;58.50;;;;;;5055732;28;20044;-73
2022/07/22 11:37:04;;;;;;;3.33;2.08;;;35.40;59.40;;;;;;5072510;28;20058;-74
2022/07/22 11:39:32;;;;;;;3.60;2.58;;;35.30;58.60;;;;;;5054570;28;20051;-74
2022/07/22 11:42:00;;;;;;;5.32;2.30;;;35.40;59.20;;;;;;5088075;28;20183;-74
2022/07/22 11:44:30;;;;;;;3.28;2.35;;;35.40;59.50;;;;;;5072284;28;20040;-74
2022/07/22 11:46:59;;;;;;;4.13;2.00;;;35.40;59.50;;;;;;5072322;28;20052;-74
2022/07/22 11:49:29;;;;;;;2.58;1.83;;;35.40;59.80;;;;;;5088254;28;20449;-74
2022/07/22 11:51:57;;;;;;;3.28;1.67;;;35.30;59.30;;;;;;5092028;28;20048;-74
2022/07/22 11:54:25;;;;;;;3.55;2.00;;;35.30;59.30;;;;;;5093706;28;20076;-73
2022/07/22 11:56:53;;;;;;;3.35;1.90;;;35.30;59.80;;;;;;5094315;28;20040;-73
2022/07/22 11:59:23;;;;;;;3.75;1.77;;;35.30;59.30;;;;;;5113474;28;20063;-73
2022/07/22 12:01:52;;;;;;;3.05;2.20;;;35.20;58.50;;;;;;5096354;28;20055;-74
2022/07/22 12:04:23;;;;;;;3.97;2.60;;;35.20;58.70;;;;;;5113041;28;20498;-74
2022/07/22 12:06:54;;;;;;;2.80;2.10;;;35.20;59.30;;;;;;5113944;28;20044;-74
2022/07/22 12:09:25;;;;;;;4.10;2.08;;;35.10;59.40;;;;;;5091650;28;20071;-74
2022/07/22 12:11:57;;;;;;;4.40;2.63;;;35.20;59.60;;;;;;5100780;28;20060;-75
2022/07/22 12:14:32;;;;;;;4.68;2.22;;;35.20;59.40;;;;;;5083305;28;20044;-75
2022/07/22 12:17:06;;;;;;;3.50;2.10;;;35.20;59.70;;;;;;5100756;28;20044;-74
2022/07/22 12:19:35;;;;;;;4.82;1.70;;;35.10;59.70;;;;;;5106346;28;20144;-75
2022/07/22 12:22:06;;;;;;;3.03;2.10;;;35.10;59.70;;;;;;5084192;28;20056;-75
2022/07/22 12:24:42;;;;;;;2.90;1.98;;;35.10;59.90;;;;;;5104221;28;20035;-74
2022/07/22 12:27:13;;;;;;;4.18;2.30;;;35.10;60.30;;;;;;5084386;28;20040;-74
2022/07/22 12:29:40;;;;;;;5.38;2.30;;;35.00;60.50;;;;;;5092642;28;20043;-74
2022/07/22 12:32:15;;;;;;;4.38;2.42;;;35.00;60.80;;;;;;5101419;28;20509;-74
2022/07/22 12:34:43;;;;;;;;;;;35.00;61.40;;;;;;5086143;28;20055;-74
2022/07/22 12:37:19;;;;;;;2.75;1.92;;;34.90;61.60;;;;;;5092077;28;19924;-74
2022/07/22 12:40:06;;;;;;;3.28;2.08;;;34.90;61.40;;;;;;5093323;28;20052;-74
2022/07/22 12:42:40;;;;;;;2.55;1.90;;;34.90;61.70;;;;;;5096607;28;20055;-74
2022/07/22 12:45:16;;;;;;;2.95;2.17;;;34.90;61.10;;;;;;5096898;28;20046;-75
2022/07/22 12:47:48;;;;;;;3.20;2.45;;;34.80;61.60;;;;;;5107093;28;20044;-74
2022/07/22 12:50:20;;;;;;;5.15;2.15;;;34.80;61.80;;;;;;5096091;28;20048;-76
2022/07/22 12:52:49;;;;;;;4.80;2.30;;;34.90;61.70;;;;;;5096083;28;20482;-76
2022/07/22 12:55:51;;;;;;;3.88;2.58;;;34.80;62.10;;;;;;5089167;28;20048;-75
2022/07/22 12:58:19;;;;;;;3.58;2.10;;;34.80;63.00;;;;;;5091561;28;20052;-75
2022/07/22 13:00:52;;;;;;;4.90;2.10;;;34.90;63.50;;;;;;5074355;28;20047;-75
2022/07/22 13:03:25;;;;;;;3.05;2.03;;;34.80;63.10;;;;;;5075301;28;20105;-75
2022/07/22 13:05:56;;;;;;;4.05;2.83;;;34.90;63.40;;;;;;5092768;28;20036;-75
2022/07/22 13:08:25;;;;;;;3.63;2.53;;;34.90;63.70;;;;;;5057822;28;20060;-75